createdAt,value
2022-10-21T00:00:35.306Z,19.33
2022-10-21T00:03:02.431Z,16.15
2022-10-21T00:05:29.196Z,18.13
2022-10-21T00:07:56.233Z,19.10
2022-10-21T00:10:25.083Z,20.35
2022-10-21T00:12:51.962Z,28.90
2022-10-21T00:15:19.011Z,18.20
2022-10-21T00:17:45.813Z,16.75
2022-10-21T00:20:13.405Z,20.00
2022-10-21T00:22:40.742Z,17.65
2022-10-21T00:25:08.116Z,18.50
2022-10-21T00:27:35.473Z,16.67
2022-10-21T00:32:35.634Z,18.65
2022-10-21T00:35:02.525Z,17.13
2022-10-21T00:37:35.576Z,19.67
2022-10-21T00:40:02.667Z,21.23
2022-10-21T00:42:33.657Z,21.98
2022-10-21T00:45:07.567Z,21.33
2022-10-21T00:47:59.249Z,30.20
2022-10-21T00:50:43.213Z,17.83
2022-10-21T00:53:14.017Z,18.58
2022-10-21T00:55:47.493Z,17.67
2022-10-21T00:58:15.617Z,18.95
2022-10-21T01:00:42.386Z,19.88
2022-10-21T01:03:09.271Z,15.87
2022-10-21T01:05:41.112Z,20.97
2022-10-21T01:08:13.833Z,17.08
2022-10-21T01:10:41.326Z,15.80
2022-10-21T01:13:29.530Z,18.55
2022-10-21T01:16:03.563Z,21.48
2022-10-21T01:18:56.533Z,18.23
2022-10-21T01:21:53.082Z,19.63
2022-10-21T01:24:57.079Z,22.90
2022-10-21T01:27:55.256Z,19.95
2022-10-21T01:30:46.187Z,16.75
2022-10-21T01:33:38.952Z,19.98
2022-10-21T01:36:12.363Z,23.73
2022-10-21T01:38:39.099Z,17.58
2022-10-21T01:41:30.266Z,18.40
2022-10-21T01:44:12.813Z,19.10
2022-10-21T01:47:06.848Z,16.45
2022-10-21T01:49:43.629Z,18.75
2022-10-21T01:52:12.478Z,14.82
2022-10-21T01:54:44.151Z,21.73
2022-10-21T01:57:15.484Z,15.77
2022-10-21T01:59:44.215Z,17.83
2022-10-21T02:02:11.814Z,17.35
2022-10-21T02:07:09.545Z,18.20
2022-10-21T02:09:36.626Z,16.52
2022-10-21T02:12:05.622Z,19.30
2022-10-21T02:14:48.508Z,15.13
2022-10-21T02:17:19.548Z,20.10
2022-10-21T02:19:47.913Z,18.55
2022-10-21T02:22:18.900Z,19.85
2022-10-21T02:25:00.131Z,17.02
2022-10-21T02:27:27.294Z,16.45
2022-10-21T02:29:57.205Z,17.80
2022-10-21T02:33:03.480Z,22.50
2022-10-21T02:35:49.608Z,19.48
2022-10-21T02:38:37.530Z,18.40
2022-10-21T02:41:13.434Z,17.70
2022-10-21T02:43:43.865Z,19.70
2022-10-21T02:46:14.626Z,16.30
2022-10-21T02:48:45.217Z,18.95
2022-10-21T02:51:12.491Z,18.73
2022-10-21T02:53:39.341Z,22.00
2022-10-21T02:56:06.574Z,20.58
2022-10-21T02:58:33.603Z,20.10
2022-10-21T03:01:01.006Z,17.00
2022-10-21T03:03:29.891Z,18.85
2022-10-21T03:05:57.707Z,18.02
2022-10-21T03:08:25.904Z,19.27
2022-10-21T03:10:53.649Z,17.63
2022-10-21T03:13:21.426Z,22.25
2022-10-21T03:18:15.794Z,17.85
2022-10-21T03:20:42.715Z,22.00
2022-10-21T03:23:10.146Z,19.65
2022-10-21T03:25:36.854Z,18.58
2022-10-21T03:28:03.595Z,21.83
2022-10-21T03:30:30.488Z,22.80
2022-10-21T03:32:57.182Z,18.63
2022-10-21T03:35:23.859Z,16.83
2022-10-21T03:37:51.870Z,25.05
2022-10-21T03:40:18.833Z,22.65
2022-10-21T03:42:45.653Z,34.72
2022-10-21T03:45:12.758Z,18.27
2022-10-21T03:47:41.784Z,19.48
2022-10-21T03:50:13.033Z,20.35
2022-10-21T03:52:42.434Z,21.88
2022-10-21T03:55:13.136Z,20.97
2022-10-21T03:57:40.073Z,23.90
2022-10-21T04:00:07.842Z,24.10
2022-10-21T04:05:01.303Z,19.58
2022-10-21T04:07:28.173Z,32.87
2022-10-21T04:09:56.067Z,25.60
2022-10-21T04:12:22.753Z,23.50
2022-10-21T04:14:50.424Z,30.63
2022-10-21T04:19:43.738Z,22.90
2022-10-21T04:22:10.482Z,22.13
2022-10-21T04:24:37.260Z,23.33
2022-10-21T04:27:03.970Z,22.83
2022-10-21T04:29:30.734Z,29.27
2022-10-21T04:31:57.556Z,23.97
2022-10-21T04:34:24.251Z,22.73
2022-10-21T04:36:50.937Z,21.90
2022-10-21T04:39:19.796Z,25.77
2022-10-21T04:41:47.880Z,21.95
2022-10-21T04:44:14.775Z,20.30
2022-10-21T04:46:47.377Z,22.83
2022-10-21T04:49:14.323Z,21.73
2022-10-21T04:51:41.091Z,22.25
2022-10-21T04:54:07.864Z,26.23
2022-10-21T04:56:41.870Z,25.10
2022-10-21T04:59:11.486Z,24.15
2022-10-21T05:01:38.324Z,24.48
2022-10-21T05:04:05.014Z,23.07
2022-10-21T05:06:31.899Z,18.77
2022-10-21T05:08:58.650Z,25.17
2022-10-21T05:11:25.531Z,23.03
2022-10-21T05:13:52.466Z,19.13
2022-10-21T05:16:19.204Z,19.13
2022-10-21T05:18:46.307Z,22.33
2022-10-21T05:21:14.156Z,21.42
2022-10-21T05:23:41.413Z,20.63
2022-10-21T05:26:08.877Z,23.13
2022-10-21T05:28:36.241Z,19.98
2022-10-21T05:31:03.035Z,20.83
2022-10-21T05:33:33.454Z,22.77
2022-10-21T05:36:07.495Z,22.85
2022-10-21T05:38:35.102Z,18.40
2022-10-21T05:43:28.367Z,20.00
2022-10-21T05:45:58.930Z,21.88
2022-10-21T05:48:25.729Z,22.05
2022-10-21T05:50:55.580Z,22.65
2022-10-21T05:53:25.342Z,24.65
2022-10-21T05:56:06.727Z,26.00
2022-10-21T05:58:40.635Z,21.92
2022-10-21T06:01:10.158Z,20.48
2022-10-21T06:03:38.307Z,22.25
2022-10-21T06:06:09.469Z,24.55
2022-10-21T06:08:39.034Z,20.52
2022-10-21T06:11:12.031Z,25.50
2022-10-21T06:13:39.430Z,24.08
2022-10-21T06:16:08.156Z,21.83
2022-10-21T06:18:35.204Z,25.80
2022-10-21T06:21:02.031Z,20.85
2022-10-21T06:23:29.068Z,26.60
2022-10-21T06:26:21.978Z,24.85
2022-10-21T06:28:48.651Z,19.27
2022-10-21T06:31:20.434Z,24.02
2022-10-21T06:33:49.144Z,20.60
2022-10-21T06:36:16.544Z,22.35
2022-10-21T06:38:43.572Z,20.52
2022-10-21T06:41:14.584Z,22.65
2022-10-21T06:43:43.532Z,18.50
2022-10-21T06:46:14.335Z,22.40
2022-10-21T06:48:41.449Z,19.55
2022-10-21T06:51:15.564Z,25.10
2022-10-21T06:53:43.247Z,17.55
2022-10-21T06:58:48.188Z,18.67
2022-10-21T07:01:41.051Z,32.92
2022-10-21T07:04:16.168Z,18.77
2022-10-21T07:06:46.051Z,19.20
2022-10-21T07:09:15.209Z,19.55
2022-10-21T07:11:42.024Z,18.35
2022-10-21T07:14:12.473Z,22.80
2022-10-21T07:16:39.405Z,18.02
2022-10-21T07:19:06.921Z,22.77
2022-10-21T07:21:33.859Z,21.20
2022-10-21T07:24:00.832Z,18.63
2022-10-21T07:26:33.234Z,14.13
2022-10-21T07:29:00.966Z,16.63
2022-10-21T07:31:30.728Z,16.10
2022-10-21T07:33:57.537Z,17.02
2022-10-21T07:36:32.795Z,11.93
2022-10-21T07:39:02.841Z,16.58
2022-10-21T07:41:35.310Z,14.98
2022-10-21T07:44:02.464Z,12.07
2022-10-21T07:46:29.484Z,16.60
2022-10-21T07:48:56.292Z,15.40
2022-10-21T07:51:31.354Z,16.42
2022-10-21T07:54:00.240Z,15.82
2022-10-21T07:56:35.206Z,15.23
2022-10-21T07:59:12.674Z,12.63
2022-10-21T08:01:44.517Z,10.88
2022-10-21T08:04:14.278Z,12.48
2022-10-21T08:06:41.821Z,14.57
2022-10-21T08:09:08.832Z,14.75
2022-10-21T08:11:36.120Z,15.25
2022-10-21T08:14:06.794Z,21.60
2022-10-21T08:16:34.242Z,13.18
2022-10-21T08:19:02.014Z,16.65
2022-10-21T08:21:29.126Z,12.40
2022-10-21T08:23:55.853Z,15.77
2022-10-21T08:26:22.690Z,14.80
2022-10-21T08:28:49.408Z,11.40
2022-10-21T08:31:19.317Z,11.37
2022-10-21T08:33:46.705Z,11.55
2022-10-21T08:36:20.354Z,10.48
2022-10-21T08:38:48.578Z,14.40
2022-10-21T08:41:30.345Z,11.13
2022-10-21T08:44:04.881Z,11.88
2022-10-21T08:46:40.942Z,11.35
2022-10-21T08:49:30.951Z,10.68
2022-10-21T08:52:04.442Z,14.32
2022-10-21T08:54:43.564Z,16.38
2022-10-21T08:57:19.973Z,15.43
2022-10-21T08:59:46.807Z,12.95
2022-10-21T09:02:13.445Z,9.27
2022-10-21T09:05:00.329Z,9.93
2022-10-21T09:07:39.388Z,9.68
2022-10-21T09:10:39.345Z,11.52
2022-10-21T09:13:10.881Z,12.02
2022-10-21T09:15:47.023Z,9.95
2022-10-21T09:18:26.492Z,12.20
2022-10-21T09:21:22.406Z,14.50
2022-10-21T09:24:13.264Z,9.65
2022-10-21T09:26:44.556Z,13.35
2022-10-21T09:29:32.446Z,15.00
2022-10-21T09:32:05.199Z,12.03
2022-10-21T09:35:00.583Z,15.18
2022-10-21T09:37:36.245Z,10.90
2022-10-21T09:40:29.998Z,8.63
2022-10-21T09:43:02.147Z,12.23
2022-10-21T09:45:40.583Z,11.20
2022-10-21T09:48:19.940Z,11.25
2022-10-21T09:50:51.255Z,10.30
2022-10-21T09:53:26.366Z,11.85
2022-10-21T09:56:01.966Z,9.93
2022-10-21T09:58:38.397Z,11.35
2022-10-21T10:01:08.074Z,8.88
2022-10-21T10:03:44.630Z,10.65
2022-10-21T10:06:11.997Z,9.18
2022-10-21T10:08:44.900Z,15.45
2022-10-21T10:11:13.414Z,10.35
2022-10-21T10:13:44.646Z,10.27
2022-10-21T10:16:17.463Z,9.23
2022-10-21T10:18:45.092Z,13.30
2022-10-21T10:21:15.080Z,15.55
2022-10-21T10:23:48.317Z,8.98
2022-10-21T10:26:28.715Z,10.70
2022-10-21T10:29:14.826Z,13.48
2022-10-21T10:31:51.094Z,13.77
2022-10-21T10:34:30.643Z,12.75
2022-10-21T10:37:26.692Z,11.80
2022-10-21T10:39:56.933Z,13.20
2022-10-21T10:42:27.268Z,12.95
2022-10-21T10:45:00.807Z,11.40
2022-10-21T10:47:37.932Z,12.60
2022-10-21T10:50:05.145Z,11.37
2022-10-21T10:52:31.789Z,13.30
2022-10-21T10:55:28.333Z,15.87
2022-10-21T10:58:09.946Z,18.13
2022-10-21T11:00:44.813Z,16.58
2022-10-21T11:03:17.202Z,12.15
2022-10-21T11:05:50.802Z,19.08
2022-10-21T11:08:29.710Z,19.40
2022-10-21T11:11:21.131Z,17.83
2022-10-21T11:13:47.981Z,17.20
2022-10-21T11:17:00.093Z,11.80
2022-10-21T11:19:56.908Z,11.85
2022-10-21T11:22:34.136Z,12.35
2022-10-21T11:25:07.150Z,15.27
2022-10-21T11:27:38.101Z,13.95
2022-10-21T11:30:14.029Z,17.13
2022-10-21T11:33:09.201Z,11.75
2022-10-21T11:36:06.203Z,14.85
2022-10-21T11:38:50.629Z,14.18
2022-10-21T11:41:31.119Z,11.38
2022-10-21T11:44:29.877Z,11.68
2022-10-21T11:47:34.356Z,17.85
2022-10-21T11:50:28.443Z,11.07
2022-10-21T11:53:18.351Z,10.70
2022-10-21T11:56:05.302Z,11.05
2022-10-21T11:58:39.167Z,15.10
2022-10-21T12:01:24.173Z,13.57
2022-10-21T12:04:16.054Z,11.77
2022-10-21T12:06:43.767Z,16.65
2022-10-21T12:09:37.217Z,13.18
2022-10-21T12:12:06.042Z,8.63
2022-10-21T12:14:37.258Z,10.88
2022-10-21T12:17:09.223Z,9.63
2022-10-21T12:19:36.665Z,14.10
2022-10-21T12:24:33.947Z,10.32
2022-10-21T12:27:22.036Z,11.57
2022-10-21T12:30:25.016Z,12.20
2022-10-21T12:33:24.623Z,11.63
2022-10-21T12:35:53.925Z,9.40
2022-10-21T12:38:23.403Z,17.30
2022-10-21T12:41:11.626Z,11.95
2022-10-21T12:43:39.326Z,11.40
2022-10-21T12:46:11.397Z,10.73
2022-10-21T12:48:45.907Z,10.65
2022-10-21T12:51:39.519Z,11.25
2022-10-21T12:54:13.546Z,12.30
2022-10-21T12:56:51.031Z,11.40
2022-10-21T12:59:29.079Z,13.65
2022-10-21T13:04:34.852Z,11.57
2022-10-21T13:07:27.699Z,13.10
2022-10-21T13:09:54.702Z,10.68
2022-10-21T13:12:24.263Z,11.70
2022-10-21T13:14:59.611Z,9.82
2022-10-21T13:17:46.933Z,8.18
2022-10-21T13:20:22.058Z,9.27
2022-10-21T13:22:50.928Z,14.23
2022-10-21T13:25:24.131Z,10.30
2022-10-21T13:28:12.724Z,14.10
2022-10-21T13:33:18.000Z,8.57
2022-10-21T13:35:47.855Z,8.35
2022-10-21T13:38:27.310Z,11.13
2022-10-21T13:41:02.732Z,7.68
2022-10-21T13:43:52.936Z,7.82
2022-10-21T13:46:52.692Z,8.63
2022-10-21T13:49:30.583Z,13.15
2022-10-21T13:51:58.235Z,8.82
2022-10-21T13:54:24.974Z,8.55
2022-10-21T13:56:51.806Z,17.73
2022-10-21T13:59:32.610Z,14.05
2022-10-21T14:01:59.456Z,7.30
2022-10-21T14:04:33.142Z,12.18
2022-10-21T14:07:06.335Z,13.07
2022-10-21T14:09:47.876Z,10.18
2022-10-21T14:12:43.977Z,14.60
2022-10-21T14:15:19.181Z,7.07
2022-10-21T14:17:55.492Z,12.32
2022-10-21T14:20:34.660Z,11.00
2022-10-21T14:23:06.027Z,9.35
2022-10-21T14:25:33.955Z,9.05
2022-10-21T14:28:03.369Z,11.68
2022-10-21T14:30:33.319Z,11.10
2022-10-21T14:33:04.630Z,14.57
2022-10-21T14:35:31.710Z,14.20
2022-10-21T14:38:02.289Z,57.38
2022-10-21T14:40:41.555Z,16.23
2022-10-21T14:43:45.737Z,9.68
2022-10-21T14:46:12.913Z,8.20
2022-10-21T14:49:03.307Z,12.90
2022-10-21T14:51:36.470Z,7.65
2022-10-21T14:54:33.880Z,11.65
2022-10-21T14:57:01.412Z,13.23
2022-10-21T14:59:39.462Z,8.77
2022-10-21T15:04:58.183Z,11.05
2022-10-21T15:07:38.276Z,9.80
2022-10-21T15:10:04.928Z,11.10
2022-10-21T15:12:52.942Z,10.07
2022-10-21T15:15:41.099Z,12.15
2022-10-21T15:18:22.054Z,15.63
2022-10-21T15:21:13.738Z,7.20
2022-10-21T15:23:50.838Z,9.18
2022-10-21T15:26:22.888Z,14.45
2022-10-21T15:28:50.799Z,18.08
2022-10-21T15:31:28.879Z,13.80
2022-10-21T15:36:24.778Z,12.68
2022-10-21T15:41:21.379Z,10.68
2022-10-21T15:44:05.305Z,12.65
2022-10-21T15:46:45.631Z,14.13
2022-10-21T15:49:21.062Z,8.88
2022-10-21T15:51:49.244Z,16.60
2022-10-21T15:54:17.824Z,16.02
2022-10-21T15:56:46.890Z,23.38
2022-10-21T15:59:27.868Z,33.33
2022-10-21T16:01:55.846Z,23.10
2022-10-21T16:04:23.560Z,20.25
2022-10-21T16:06:52.393Z,16.83
2022-10-21T16:09:23.447Z,19.58
2022-10-21T16:12:00.162Z,9.55
2022-10-21T16:14:31.359Z,18.00
2022-10-21T16:17:02.710Z,14.93
2022-10-21T16:19:29.397Z,13.32
2022-10-21T16:21:56.843Z,23.33
2022-10-21T16:26:51.399Z,19.02
2022-10-21T16:29:22.825Z,22.42
2022-10-21T16:31:54.147Z,21.55
2022-10-21T16:34:22.215Z,29.02
2022-10-21T16:36:49.023Z,21.63
2022-10-21T16:39:18.785Z,20.65
2022-10-21T16:41:45.842Z,26.65
2022-10-21T16:44:12.812Z,21.42
2022-10-21T16:46:59.931Z,20.48
2022-10-21T16:49:27.871Z,17.77
2022-10-21T16:51:57.549Z,17.10
2022-10-21T16:54:26.468Z,19.95
2022-10-21T16:56:55.187Z,21.02
2022-10-21T16:59:23.035Z,24.52
2022-10-21T17:01:51.559Z,16.10
2022-10-21T17:04:18.536Z,17.23
2022-10-21T17:06:47.391Z,22.88
2022-10-21T17:09:14.299Z,16.13
2022-10-21T17:11:43.611Z,21.70
2022-10-21T17:14:18.090Z,20.80
2022-10-21T17:16:45.508Z,18.10
2022-10-21T17:19:14.091Z,17.08
2022-10-21T17:21:40.969Z,19.17
2022-10-21T17:24:15.370Z,16.90
2022-10-21T17:26:43.212Z,21.42
2022-10-21T17:29:10.806Z,16.77
2022-10-21T17:34:08.917Z,20.77
2022-10-21T17:36:37.301Z,19.17
2022-10-21T17:39:05.458Z,21.30
2022-10-21T17:41:38.957Z,13.38
2022-10-21T17:44:05.923Z,7.85
2022-10-21T17:46:32.621Z,8.25
2022-10-21T17:48:59.411Z,12.17
2022-10-21T17:51:26.572Z,6.05
2022-10-21T17:53:54.451Z,10.07
2022-10-21T17:56:27.256Z,7.25
2022-10-21T17:58:56.040Z,6.85
2022-10-21T18:01:27.375Z,10.82
2022-10-21T18:03:57.823Z,9.40
2022-10-21T18:06:24.706Z,6.95
2022-10-21T18:08:52.911Z,10.65
2022-10-21T18:11:24.919Z,7.88
2022-10-21T18:13:55.236Z,10.90
2022-10-21T18:16:24.614Z,11.45
2022-10-21T18:18:55.233Z,9.75
2022-10-21T18:21:25.194Z,9.57
2022-10-21T18:23:53.602Z,10.80
2022-10-21T18:26:25.682Z,7.97
2022-10-21T18:28:56.977Z,4.97
2022-10-21T18:31:26.260Z,5.18
2022-10-21T18:33:56.431Z,5.03
2022-10-21T18:36:23.801Z,7.25
2022-10-21T18:38:51.125Z,6.78
2022-10-21T18:41:20.587Z,6.47
2022-10-21T18:43:51.025Z,8.50
2022-10-21T18:46:18.274Z,5.90
2022-10-21T18:48:48.625Z,4.85
2022-10-21T18:51:23.949Z,8.35
2022-10-21T18:53:53.360Z,4.38
2022-10-21T18:56:22.188Z,9.23
2022-10-21T18:58:52.389Z,4.95
2022-10-21T19:01:27.196Z,5.45
2022-10-21T19:03:55.245Z,7.32
2022-10-21T19:06:40.704Z,10.43
2022-10-21T19:09:21.614Z,6.10
2022-10-21T19:11:49.317Z,5.88
2022-10-21T19:14:16.491Z,8.20
2022-10-21T19:16:44.617Z,3.88
2022-10-21T19:19:14.791Z,5.13
2022-10-21T19:21:42.062Z,5.13
2022-10-21T19:24:10.039Z,4.97
2022-10-21T19:26:39.482Z,3.47
2022-10-21T19:29:13.462Z,3.03
2022-10-21T19:31:41.642Z,4.20
2022-10-21T19:34:16.346Z,3.38
2022-10-21T19:36:43.411Z,3.83
2022-10-21T19:39:10.879Z,6.32
2022-10-21T19:44:04.621Z,4.90
2022-10-21T19:46:33.863Z,4.90
2022-10-21T19:49:01.953Z,3.60
2022-10-21T19:51:29.275Z,8.20
2022-10-21T19:53:56.656Z,7.72
2022-10-21T19:56:29.674Z,13.93
2022-10-21T19:59:00.061Z,12.88
2022-10-21T20:01:27.116Z,9.60
2022-10-21T20:03:57.454Z,10.52
2022-10-21T20:06:29.918Z,5.15
2022-10-21T20:08:59.175Z,26.42
2022-10-21T20:11:27.651Z,9.57
2022-10-21T20:13:58.568Z,10.32
2022-10-21T20:16:30.919Z,6.03
2022-10-21T20:18:59.499Z,12.90
2022-10-21T20:21:30.464Z,16.67
2022-10-21T20:23:58.527Z,6.70
2022-10-21T20:26:25.921Z,5.72
2022-10-21T20:28:53.029Z,3.72
2022-10-21T20:31:19.944Z,5.70
2022-10-21T20:33:49.788Z,4.60
2022-10-21T20:36:26.564Z,7.18
2022-10-21T20:38:56.095Z,7.70
2022-10-21T20:41:26.674Z,3.72
2022-10-21T20:43:55.048Z,2.83
2022-10-21T20:46:25.018Z,4.68
2022-10-21T20:48:53.468Z,4.95
2022-10-21T20:51:24.011Z,7.75
2022-10-21T20:53:53.547Z,8.85
2022-10-21T20:56:21.120Z,10.57
2022-10-21T21:01:20.861Z,6.53
2022-10-21T21:03:52.014Z,12.48
2022-10-21T21:06:20.257Z,9.10
2022-10-21T21:08:49.243Z,7.57
2022-10-21T21:11:34.473Z,15.15
2022-10-21T21:14:01.277Z,7.53
2022-10-21T21:16:30.050Z,5.60
2022-10-21T21:19:04.949Z,6.97
2022-10-21T21:21:36.542Z,12.80
2022-10-21T21:24:03.955Z,10.18
2022-10-21T21:26:34.211Z,10.00
2022-10-21T21:29:01.663Z,14.52
2022-10-21T21:31:30.931Z,7.13
2022-10-21T21:33:58.065Z,6.13
2022-10-21T21:36:25.340Z,8.63
2022-10-21T21:38:54.067Z,6.03
2022-10-21T21:41:24.365Z,7.78
2022-10-21T21:43:54.136Z,9.88
2022-10-21T21:46:23.792Z,9.27
2022-10-21T21:49:05.146Z,13.35
2022-10-21T21:51:34.720Z,9.20
2022-10-21T21:54:01.911Z,13.60
2022-10-21T21:56:29.899Z,8.98
2022-10-21T21:58:57.975Z,9.77
2022-10-21T22:01:27.472Z,9.05
2022-10-21T22:03:55.369Z,8.57
2022-10-21T22:06:28.907Z,12.35
2022-10-21T22:08:56.041Z,6.60
2022-10-21T22:11:26.353Z,10.02
2022-10-21T22:13:53.356Z,7.68
2022-10-21T22:16:22.208Z,15.52
2022-10-21T22:18:49.406Z,16.33
2022-10-21T22:21:18.219Z,12.15
2022-10-21T22:23:46.508Z,13.05
2022-10-21T22:26:15.537Z,11.52
2022-10-21T22:28:42.735Z,11.13
2022-10-21T22:31:14.053Z,12.20
2022-10-21T22:36:14.280Z,9.13
2022-10-21T22:38:41.042Z,10.40
2022-10-21T22:41:12.252Z,14.85
2022-10-21T22:43:39.582Z,18.60
2022-10-21T22:46:21.458Z,14.73
2022-10-21T22:48:53.443Z,18.50
2022-10-21T22:51:20.137Z,14.43
2022-10-21T22:53:51.903Z,14.57
2022-10-21T22:56:22.464Z,12.55
2022-10-21T22:58:49.213Z,10.25
2022-10-21T23:01:15.962Z,13.88
2022-10-21T23:03:42.754Z,15.93
2022-10-21T23:06:09.711Z,12.45
2022-10-21T23:08:36.639Z,16.17
2022-10-21T23:11:03.832Z,10.68
2022-10-21T23:13:30.525Z,17.00
2022-10-21T23:15:57.319Z,10.10
2022-10-21T23:18:24.023Z,12.15
2022-10-21T23:20:53.187Z,13.30
2022-10-21T23:23:21.303Z,14.75
2022-10-21T23:25:48.012Z,15.45
2022-10-21T23:28:15.845Z,21.63
2022-10-21T23:30:48.623Z,15.25
2022-10-21T23:33:15.328Z,15.73
2022-10-21T23:35:42.124Z,12.93
2022-10-21T23:38:09.210Z,17.17
2022-10-21T23:40:35.978Z,23.35
2022-10-21T23:43:02.867Z,17.50
2022-10-21T23:45:29.528Z,22.15
2022-10-21T23:47:56.318Z,16.43
2022-10-21T23:50:23.044Z,16.13
2022-10-21T23:52:49.966Z,20.05
2022-10-21T23:55:16.817Z,21.42
2022-10-21T23:57:43.826Z,14.45
